aviador You're here:

KPHL Decoded Metar

PHILADELPHIA in PA, USA
Report Time2017-07-21 07:54:00
UTC Time2017-07-21 08:42:32
Flight Rules vfr VFR
Wind260° at 04 kt
W.Decomp.*RWY 26: 3.9 kt HW 0.7 kt RCW
RWY 27: 4.0 kt HW 0 kt LCW
RWY 35: 0.7 kt HW 3.9 kt LCW
W.Rank260° ranks 13
Current wind is below 260° avg. (8.4)
Visibility9999 m
Phenomena:N/A
Clouds:Scattered 210 Hf
Broken 260 Hf
Expected CloudBase > 2,000 ft AGL from Temp-Dew spread
Ceiling26,000 ft
Temp27°C (ISA +12)
Dew Point22°C (74% RH)
Heat Index29.2°C
QNH1012 hPa
Density Alt1,837 ft
Elevation59 ft
Report Wrong Elevation
Raw Report
KPHL 210754Z 26004KT 10SM SCT210 BKN260 27/22 A2989 RMK AO2 SLP120
T02720222=

Extra information for KPHL:More info

Metar Taf Metar & Taf Last 4 Metars F.Rules Stats Wind Profile Meteogram Temp Stats Airport Information Weather charts Add Link Nearby VenuesMetar ALERT Operation Metar Decoded Social comments

AIRNAV info for KPHL